Time;durP1;ratioP1;P1;durP2;ratioP2;P2;SDS_P1;SDS_P2;PMS_P1;PMS_P2;Temp;Humidity;BMP_temperature;BMP_pressure;BME280_temperature;BME280_humidity;BME280_pressure;Samples;Min_cycle;Max_cycle;Signal;HPM_P1;HPM_P2
2022/07/14 00:02:21;;;;;;;0.00;0.00;;;20.20;99.90;;;;;;5093939;28;20038;-79
2022/07/14 00:04:47;;;;;;;0.10;0.10;;;20.20;99.90;;;;;;5093883;28;20018;-77
2022/07/14 00:07:13;;;;;;;0.30;0.30;;;20.10;99.90;;;;;;5094005;28;20039;-79
2022/07/14 00:09:39;;;;;;;0.10;0.10;;;20.10;99.90;;;;;;5093847;28;20015;-77
2022/07/14 00:12:05;;;;;;;0.10;0.10;;;20.00;99.90;;;;;;5093804;28;20031;-77
2022/07/14 00:14:31;;;;;;;0.20;0.20;;;19.90;99.90;;;;;;5093758;28;20050;-76
2022/07/14 00:16:56;;;;;;;0.30;0.30;;;19.90;99.90;;;;;;5093516;28;20028;-78
2022/07/14 00:19:22;;;;;;;0.32;0.32;;;19.90;99.90;;;;;;5093660;28;20494;-79
2022/07/14 00:21:48;;;;;;;0.20;0.20;;;19.90;99.90;;;;;;5093475;28;20024;-77
2022/07/14 00:24:14;;;;;;;0.35;0.35;;;19.90;99.90;;;;;;5075518;28;20048;-79
2022/07/14 00:26:40;;;;;;;0.20;0.20;;;20.00;99.90;;;;;;5093642;28;20039;-78
2022/07/14 00:29:08;;;;;;;0.50;0.50;;;20.00;99.90;;;;;;5093584;28;20020;-79
2022/07/14 00:31:35;;;;;;;0.00;0.00;;;20.00;99.90;;;;;;5093507;28;20103;-77
2022/07/14 00:34:00;;;;;;;0.20;0.20;;;20.00;99.90;;;;;;5074803;28;20119;-76
2022/07/14 00:36:27;;;;;;;0.38;0.38;;;20.00;99.90;;;;;;5074675;28;20484;-77
2022/07/14 00:38:56;;;;;;;0.10;0.10;;;20.00;99.90;;;;;;5093537;28;20107;-76
2022/07/14 00:41:22;;;;;;;1.42;0.30;;;20.00;99.90;;;;;;5075132;28;20491;-78
2022/07/14 00:43:48;;;;;;;0.30;0.30;;;20.00;99.90;;;;;;5093330;28;20077;-79
2022/07/14 00:46:14;;;;;;;0.20;0.20;;;19.80;99.90;;;;;;5093478;28;20032;-78
2022/07/14 00:48:40;;;;;;;0.30;0.30;;;19.70;99.90;;;;;;5075006;28;20032;-75
2022/07/14 00:51:06;;;;;;;0.20;0.20;;;19.70;99.90;;;;;;5093212;28;20043;-78
2022/07/14 00:53:32;;;;;;;0.10;0.10;;;19.90;99.90;;;;;;5074865;28;20081;-76
2022/07/14 00:55:57;;;;;;;0.22;0.22;;;20.00;99.90;;;;;;5092976;28;20028;-78
2022/07/14 00:58:23;;;;;;;0.25;0.25;;;20.10;99.90;;;;;;5093025;28;20032;-78
2022/07/14 01:00:49;;;;;;;0.20;0.20;;;20.10;99.90;;;;;;5093092;28;20020;-76
2022/07/14 01:03:15;;;;;;;0.20;0.20;;;20.00;99.90;;;;;;5093184;28;20028;-75
2022/07/14 01:05:41;;;;;;;1.55;0.25;;;20.00;99.90;;;;;;5093046;28;20074;-79
2022/07/14 01:08:07;;;;;;;0.10;0.10;;;19.90;99.90;;;;;;5093069;28;20020;-78
2022/07/14 01:10:33;;;;;;;0.20;0.20;;;19.90;99.90;;;;;;5093133;28;20488;-76
2022/07/14 01:13:03;;;;;;;4.15;0.30;;;19.80;99.90;;;;;;5074762;28;20111;-77
2022/07/14 01:15:29;;;;;;;0.00;0.00;;;19.70;99.90;;;;;;5074727;28;20480;-78
2022/07/14 01:17:55;;;;;;;0.28;0.28;;;19.70;99.90;;;;;;5092924;28;20476;-77
2022/07/14 01:20:23;;;;;;;0.63;0.30;;;19.70;99.90;;;;;;5092634;28;20023;-76
2022/07/14 01:22:49;;;;;;;0.20;0.20;;;19.60;99.90;;;;;;5074815;28;20029;-75
2022/07/14 01:25:17;;;;;;;0.30;0.30;;;19.60;99.90;;;;;;5093101;28;20027;-77
2022/07/14 01:27:43;;;;;;;0.20;0.20;;;19.60;99.90;;;;;;5092929;28;20024;-76
2022/07/14 01:30:10;;;;;;;0.20;0.20;;;19.50;99.90;;;;;;5092832;28;20081;-76
2022/07/14 01:32:36;;;;;;;0.75;0.55;;;19.40;99.90;;;;;;5074718;28;20024;-76
2022/07/14 01:35:06;;;;;;;0.20;0.20;;;19.30;99.90;;;;;;5074656;28;20115;-77
2022/07/14 01:37:32;;;;;;;0.10;0.10;;;19.30;99.90;;;;;;5092614;28;20028;-76
2022/07/14 01:39:59;;;;;;;0.20;0.20;;;19.40;99.90;;;;;;5074656;28;20020;-79
2022/07/14 01:42:26;;;;;;;1.23;0.38;;;19.40;99.90;;;;;;5092685;28;20020;-76
2022/07/14 01:44:52;;;;;;;0.22;0.22;;;19.40;99.90;;;;;;5092681;28;20470;-76
2022/07/14 01:47:18;;;;;;;0.20;0.20;;;19.40;99.90;;;;;;5077336;28;20507;-76
2022/07/14 01:49:44;;;;;;;0.28;0.28;;;19.50;99.90;;;;;;5096661;28;20020;-79
2022/07/14 01:52:09;;;;;;;0.22;0.22;;;19.50;99.90;;;;;;5077915;28;20055;-80
2022/07/14 01:54:35;;;;;;;0.30;0.30;;;19.50;99.90;;;;;;5096366;28;20124;-78
2022/07/14 01:57:01;;;;;;;0.20;0.20;;;19.40;99.90;;;;;;5078118;28;20081;-80
2022/07/14 01:59:26;;;;;;;0.22;0.22;;;19.30;99.90;;;;;;5096426;28;20099;-79
2022/07/14 02:01:52;;;;;;;0.22;0.22;;;19.40;99.90;;;;;;5096267;28;20131;-80
2022/07/14 02:04:21;;;;;;;0.20;0.20;;;19.30;99.90;;;;;;5096277;28;20024;-80
2022/07/14 02:06:51;;;;;;;2.80;1.20;;;19.30;99.90;;;;;;5096362;28;20074;-79
2022/07/14 02:09:18;;;;;;;0.25;0.25;;;19.30;99.90;;;;;;5083526;28;20094;-77
2022/07/14 02:14:29;;;;;;;0.20;0.20;;;19.20;99.90;;;;;;5096178;28;20115;-79
2022/07/14 02:16:55;;;;;;;0.13;0.13;;;19.10;99.90;;;;;;5077780;28;20024;-76
2022/07/14 02:19:23;;;;;;;0.95;0.55;;;19.10;99.90;;;;;;5096107;28;20082;-79
2022/07/14 02:21:51;;;;;;;0.15;0.15;;;19.10;99.90;;;;;;5096098;28;20025;-78
2022/07/14 02:24:18;;;;;;;0.10;0.10;;;19.10;99.90;;;;;;5077964;28;20070;-77
2022/07/14 02:26:44;;;;;;;2.92;0.43;;;19.10;99.90;;;;;;5077733;28;20020;-77
2022/07/14 02:29:10;;;;;;;0.20;0.20;;;19.00;99.90;;;;;;5095701;28;20028;-77
2022/07/14 02:31:36;;;;;;;0.10;0.10;;;19.00;99.90;;;;;;5077626;28;20180;-79
2022/07/14 02:34:03;;;;;;;0.20;0.20;;;19.00;99.90;;;;;;5095673;28;20481;-79
2022/07/14 02:36:29;;;;;;;0.20;0.20;;;18.90;99.90;;;;;;5095596;28;20499;-79
2022/07/14 02:38:55;;;;;;;0.13;0.13;;;18.90;99.90;;;;;;5095669;28;20145;-79
2022/07/14 02:41:22;;;;;;;0.30;0.30;;;18.80;99.90;;;;;;5095797;28;20519;-79
2022/07/14 02:43:48;;;;;;;0.85;0.32;;;18.90;99.90;;;;;;5077361;28;20477;-78
2022/07/14 02:46:13;;;;;;;0.45;0.45;;;18.90;99.90;;;;;;5080384;28;20027;-78
2022/07/14 02:48:39;;;;;;;0.10;0.10;;;18.90;99.90;;;;;;5100417;28;20443;-76
2022/07/14 02:51:09;;;;;;;3.03;0.22;;;18.90;99.90;;;;;;5078651;28;20502;-76
2022/07/14 02:53:36;;;;;;;0.20;0.20;;;18.80;99.90;;;;;;5076966;28;20048;-79
2022/07/14 02:56:02;;;;;;;0.20;0.20;;;18.80;99.90;;;;;;5076960;28;20016;-80
2022/07/14 02:58:29;;;;;;;0.28;0.28;;;18.70;99.90;;;;;;5076684;28;20077;-80
2022/07/14 03:00:54;;;;;;;0.10;0.10;;;18.70;99.90;;;;;;5095115;28;20027;-79
2022/07/14 03:03:23;;;;;;;0.20;0.20;;;18.70;99.90;;;;;;5095172;28;20028;-79
2022/07/14 03:05:49;;;;;;;0.35;0.35;;;18.60;99.90;;;;;;5095089;28;20418;-79
2022/07/14 03:08:16;;;;;;;0.20;0.20;;;18.70;99.90;;;;;;5094735;28;20477;-78
2022/07/14 03:10:42;;;;;;;0.20;0.20;;;18.70;99.90;;;;;;5094805;28;20511;-78
2022/07/14 03:13:08;;;;;;;0.68;0.38;;;18.70;99.90;;;;;;5094976;28;20028;-79
2022/07/14 03:15:34;;;;;;;0.10;0.10;;;18.70;99.90;;;;;;5094933;28;20016;-79
2022/07/14 03:18:01;;;;;;;0.13;0.13;;;18.60;99.90;;;;;;5076628;28;20032;-78
2022/07/14 03:20:27;;;;;;;0.55;0.55;;;18.60;99.90;;;;;;5076654;28;20389;-80
2022/07/14 03:22:52;;;;;;;0.40;0.40;;;18.60;99.90;;;;;;5094780;28;20024;-77
2022/07/14 03:25:18;;;;;;;0.20;0.20;;;18.50;99.90;;;;;;5075992;28;20056;-76
2022/07/14 03:27:46;;;;;;;0.40;0.40;;;18.50;99.90;;;;;;5076329;28;20028;-76
2022/07/14 03:30:13;;;;;;;0.30;0.30;;;18.50;99.90;;;;;;5094574;28;20410;-76
2022/07/14 03:32:39;;;;;;;2.05;0.60;;;18.50;99.90;;;;;;5094505;28;20186;-76
2022/07/14 03:35:07;;;;;;;0.10;0.10;;;18.40;99.90;;;;;;5094563;28;20055;-75
2022/07/14 03:37:34;;;;;;;0.20;0.20;;;18.40;99.90;;;;;;5094505;28;20115;-76
2022/07/14 03:40:00;;;;;;;0.25;0.25;;;18.30;99.90;;;;;;5094383;28;20442;-77
2022/07/14 03:42:26;;;;;;;0.20;0.20;;;18.30;99.90;;;;;;5094425;28;20535;-77
2022/07/14 03:44:51;;;;;;;1.25;0.28;;;18.30;99.90;;;;;;5094207;28;20112;-75
2022/07/14 03:47:17;;;;;;;0.28;0.28;;;18.30;99.90;;;;;;5094096;28;20028;-76
2022/07/14 03:49:43;;;;;;;0.32;0.32;;;18.30;99.90;;;;;;5094313;28;20020;-75
2022/07/14 03:52:09;;;;;;;0.63;0.43;;;18.30;99.90;;;;;;5094163;28;20048;-76
2022/07/14 03:54:36;;;;;;;0.10;0.10;;;18.40;99.90;;;;;;5094401;28;20020;-77
2022/07/14 03:57:02;;;;;;;1.05;1.05;;;18.40;99.90;;;;;;5094405;28;20125;-76
2022/07/14 03:59:28;;;;;;;0.20;0.20;;;18.30;99.90;;;;;;5094026;28;20016;-76
2022/07/14 04:01:54;;;;;;;0.20;0.20;;;18.40;99.90;;;;;;5093760;28;20030;-76
2022/07/14 04:04:20;;;;;;;0.30;0.30;;;18.40;99.90;;;;;;5094084;28;20476;-76
2022/07/14 04:06:45;;;;;;;0.20;0.20;;;18.40;99.90;;;;;;5094260;28;20017;-76
2022/07/14 04:09:11;;;;;;;0.10;0.10;;;18.30;99.90;;;;;;5093483;28;20480;-76
2022/07/14 04:11:37;;;;;;;0.30;0.30;;;18.20;99.90;;;;;;5094137;28;20441;-77
2022/07/14 04:14:02;;;;;;;0.20;0.20;;;18.00;99.90;;;;;;5094053;28;20024;-76
2022/07/14 04:16:28;;;;;;;2.95;0.35;;;18.10;99.90;;;;;;5100291;28;20020;-76
2022/07/14 04:18:54;;;;;;;0.20;0.20;;;18.00;99.90;;;;;;5093992;28;20071;-76
2022/07/14 04:21:19;;;;;;;0.17;0.17;;;18.00;99.90;;;;;;5093635;28;20052;-76
2022/07/14 04:23:45;;;;;;;0.15;0.15;;;17.90;99.90;;;;;;5093675;28;20070;-76
2022/07/14 04:26:11;;;;;;;0.28;0.28;;;17.90;99.90;;;;;;5093684;28;20349;-76
2022/07/14 04:28:37;;;;;;;0.82;0.60;;;17.90;99.90;;;;;;5093575;28;20108;-77
2022/07/14 04:31:03;;;;;;;0.40;0.40;;;17.70;99.90;;;;;;5093648;28;20392;-78
2022/07/14 04:33:28;;;;;;;0.77;0.22;;;18.00;99.90;;;;;;5075360;28;20361;-77
2022/07/14 04:35:54;;;;;;;2.05;0.28;;;18.10;99.90;;;;;;5093456;28;20028;-79
2022/07/14 04:38:20;;;;;;;0.20;0.20;;;18.00;99.90;;;;;;5093130;28;20032;-76
2022/07/14 04:40:48;;;;;;;0.50;0.43;;;18.00;99.90;;;;;;5093203;28;20027;-76
2022/07/14 04:43:14;;;;;;;0.20;0.20;;;17.90;99.90;;;;;;5093299;28;20020;-76
2022/07/14 04:45:39;;;;;;;0.20;0.20;;;17.90;99.90;;;;;;5093294;28;20027;-77
2022/07/14 04:48:08;;;;;;;0.10;0.10;;;17.80;99.90;;;;;;5075285;28;20023;-76
2022/07/14 04:53:18;;;;;;;0.10;0.10;;;17.70;99.90;;;;;;5093100;28;20428;-76
2022/07/14 04:55:43;;;;;;;0.25;0.25;;;17.80;99.90;;;;;;5093053;28;20016;-77
2022/07/14 04:58:09;;;;;;;0.55;0.50;;;17.80;99.90;;;;;;5093003;28;20075;-76
2022/07/14 05:00:35;;;;;;;0.50;0.50;;;17.90;99.90;;;;;;5093241;28;20048;-76
2022/07/14 05:03:01;;;;;;;2.05;0.30;;;18.10;99.90;;;;;;5095366;28;20194;-75
2022/07/14 05:05:26;;;;;;;0.30;0.30;;;18.10;99.90;;;;;;5093137;28;20020;-76
2022/07/14 05:07:52;;;;;;;0.10;0.10;;;18.10;99.90;;;;;;5093112;28;20054;-76
2022/07/14 05:10:18;;;;;;;0.10;0.10;;;18.20;99.90;;;;;;5093072;28;20028;-76
2022/07/14 05:12:43;;;;;;;0.20;0.20;;;18.10;99.90;;;;;;5092938;28;20024;-76
2022/07/14 05:15:09;;;;;;;0.98;0.70;;;18.00;99.90;;;;;;5092842;28;20028;-77
2022/07/14 05:17:35;;;;;;;0.10;0.10;;;18.10;99.90;;;;;;5092879;28;20115;-76
2022/07/14 05:20:01;;;;;;;0.45;0.40;;;18.20;99.90;;;;;;5075748;28;20427;-76
2022/07/14 05:22:27;;;;;;;0.47;0.30;;;18.30;99.90;;;;;;5097089;28;20051;-77
2022/07/14 05:24:53;;;;;;;0.13;0.13;;;18.40;99.90;;;;;;5097187;28;20020;-76
2022/07/14 05:27:19;;;;;;;0.10;0.10;;;18.40;99.90;;;;;;5097129;28;20472;-76
2022/07/14 05:29:45;;;;;;;0.30;0.30;;;18.50;99.90;;;;;;5096847;28;20035;-76
2022/07/14 05:32:10;;;;;;;0.05;0.05;;;18.60;99.90;;;;;;5097002;28;20032;-76
2022/07/14 05:34:43;;;;;;;0.30;0.30;;;18.70;99.90;;;;;;5096694;28;20051;-76
2022/07/14 05:37:09;;;;;;;1.95;0.57;;;18.80;99.90;;;;;;5096802;28;20035;-76
2022/07/14 05:39:35;;;;;;;0.22;0.20;;;18.90;99.90;;;;;;5096823;28;20066;-76
2022/07/14 05:42:00;;;;;;;0.63;0.63;;;18.90;99.90;;;;;;5096663;28;20032;-76
2022/07/14 05:44:26;;;;;;;0.75;0.68;;;19.00;99.90;;;;;;5096800;28;20476;-76
2022/07/14 05:46:52;;;;;;;0.22;0.20;;;19.10;99.90;;;;;;5096582;28;20444;-76
2022/07/14 05:49:17;;;;;;;0.10;0.10;;;19.20;99.90;;;;;;5096500;28;20020;-76
2022/07/14 05:51:43;;;;;;;0.13;0.13;;;19.40;99.90;;;;;;5096214;28;20024;-75
2022/07/14 05:54:08;;;;;;;0.10;0.10;;;19.50;99.90;;;;;;5096625;28;20024;-76
2022/07/14 05:56:34;;;;;;;0.10;0.10;;;19.60;99.90;;;;;;5096597;28;20306;-76
2022/07/14 05:59:00;;;;;;;0.28;0.28;;;19.80;99.90;;;;;;5096439;28;20060;-76
2022/07/14 06:01:26;;;;;;;0.10;0.10;;;20.00;99.90;;;;;;5096455;28;20024;-76
2022/07/14 06:03:56;;;;;;;0.30;0.30;;;20.10;99.90;;;;;;5096411;28;20392;-76
2022/07/14 06:06:22;;;;;;;0.32;0.32;;;20.40;99.90;;;;;;5096135;28;20020;-76
2022/07/14 06:08:48;;;;;;;1.27;0.30;;;20.70;99.90;;;;;;5096006;28;20421;-76
2022/07/14 06:11:14;;;;;;;0.13;0.13;;;21.00;99.90;;;;;;5096073;28;20021;-77
2022/07/14 06:13:41;;;;;;;0.10;0.10;;;21.20;99.90;;;;;;5096041;28;20039;-76
2022/07/14 06:16:09;;;;;;;0.10;0.10;;;21.50;99.90;;;;;;5096166;28;20020;-76
2022/07/14 06:18:35;;;;;;;0.63;0.63;;;22.00;99.90;;;;;;5096199;28;20468;-77
2022/07/14 06:21:00;;;;;;;0.20;0.20;;;22.20;99.90;;;;;;5095925;28;20031;-76
2022/07/14 06:23:26;;;;;;;0.10;0.10;;;22.60;99.90;;;;;;5095907;28;20016;-76
2022/07/14 06:25:52;;;;;;;0.15;0.15;;;22.90;99.90;;;;;;5095775;28;20028;-78
2022/07/14 06:28:18;;;;;;;0.20;0.20;;;23.30;99.90;;;;;;5077439;28;20024;-76
2022/07/14 06:30:44;;;;;;;0.20;0.20;;;23.60;99.90;;;;;;5095595;28;20024;-77
2022/07/14 06:33:09;;;;;;;3.35;0.60;;;23.80;98.00;;;;;;5095083;28;20039;-77
2022/07/14 06:35:40;;;;;;;0.30;0.30;;;23.90;96.90;;;;;;5095731;28;20551;-77
2022/07/14 06:38:06;;;;;;;2.50;0.68;;;24.10;95.60;;;;;;5095582;28;20054;-76
2022/07/14 06:40:32;;;;;;;0.10;0.10;;;24.20;97.20;;;;;;5095712;28;20020;-76
2022/07/14 06:42:57;;;;;;;0.20;0.20;;;24.30;99.90;;;;;;5095334;28;20035;-75
2022/07/14 06:45:23;;;;;;;0.00;0.00;;;25.30;99.20;;;;;;5095298;28;20071;-76
2022/07/14 06:47:49;;;;;;;0.00;0.00;;;26.00;92.20;;;;;;5095375;28;20082;-76
2022/07/14 06:50:14;;;;;;;0.10;0.10;;;27.40;79.20;;;;;;5095577;28;20033;-75
2022/07/14 06:52:40;;;;;;;0.65;0.13;;;29.00;69.10;;;;;;5095176;28;20527;-76
2022/07/14 06:55:07;;;;;;;0.20;0.20;;;30.60;61.20;;;;;;5095468;28;20020;-76
2022/07/14 06:57:32;;;;;;;0.10;0.10;;;31.80;57.30;;;;;;5095087;28;20032;-77
2022/07/14 06:59:58;;;;;;;0.00;0.00;;;32.90;54.40;;;;;;5095088;28;20027;-76
2022/07/14 07:02:25;;;;;;;0.20;0.20;;;33.60;50.80;;;;;;5095045;28;20390;-77
2022/07/14 07:07:36;;;;;;;0.28;0.28;;;34.80;48.50;;;;;;5095295;28;20101;-77
2022/07/14 07:10:03;;;;;;;0.55;0.55;;;35.40;47.70;;;;;;5094959;28;20020;-74
2022/07/14 07:12:29;;;;;;;0.03;0.03;;;35.90;47.20;;;;;;5095041;28;20027;-76
2022/07/14 07:14:55;;;;;;;0.20;0.20;;;36.10;47.50;;;;;;5094853;28;20026;-77
2022/07/14 07:17:21;;;;;;;0.17;0.17;;;35.90;46.80;;;;;;5094759;28;20036;-76
2022/07/14 07:19:47;;;;;;;0.30;0.30;;;35.10;48.10;;;;;;5094698;28;20070;-76
2022/07/14 07:22:12;;;;;;;0.20;0.20;;;34.40;49.60;;;;;;5094713;28;20024;-76
2022/07/14 07:24:38;;;;;;;0.40;0.40;;;34.90;49.20;;;;;;5094890;28;20024;-76
2022/07/14 07:27:05;;;;;;;0.57;0.57;;;35.20;48.10;;;;;;5094690;28;20048;-76
2022/07/14 07:29:31;;;;;;;0.10;0.10;;;35.30;48.00;;;;;;5094617;28;20024;-75
2022/07/14 07:31:56;;;;;;;0.15;0.15;;;35.30;47.80;;;;;;5094571;28;20039;-76
2022/07/14 07:34:22;;;;;;;0.30;0.20;;;35.00;48.80;;;;;;5094570;28;20031;-78
2022/07/14 07:36:49;;;;;;;0.20;0.20;;;34.70;48.80;;;;;;5094270;28;20027;-79
2022/07/14 07:39:14;;;;;;;0.10;0.10;;;34.40;49.70;;;;;;5094242;28;20027;-78
2022/07/14 07:41:40;;;;;;;0.17;0.17;;;35.00;49.40;;;;;;5094352;28;20024;-76
2022/07/14 07:44:06;;;;;;;0.15;0.15;;;35.10;48.40;;;;;;5093586;28;20051;-79
2022/07/14 07:46:32;;;;;;;0.10;0.10;;;35.30;45.70;;;;;;5094407;28;20468;-79
2022/07/14 07:48:58;;;;;;;0.40;0.40;;;35.70;46.20;;;;;;5094255;28;20020;-82
2022/07/14 07:51:23;;;;;;;2.05;0.30;;;35.90;45.50;;;;;;5094107;28;20476;-84
2022/07/14 07:53:49;;;;;;;0.30;0.30;;;36.20;45.80;;;;;;5094366;28;20553;-82
2022/07/14 07:56:15;;;;;;;0.47;0.30;;;35.60;45.60;;;;;;5094385;28;20534;-82
2022/07/14 07:58:40;;;;;;;1.45;0.95;;;34.80;47.00;;;;;;5094090;28;20388;-79
2022/07/14 08:01:06;;;;;;;0.30;0.30;;;34.40;48.30;;;;;;5094059;28;20016;-79
2022/07/14 08:03:32;;;;;;;0.77;0.30;;;34.30;47.70;;;;;;5093960;28;20363;-78
2022/07/14 08:05:58;;;;;;;0.50;0.50;;;34.10;48.90;;;;;;5093928;28;20074;-79
2022/07/14 08:08:23;;;;;;;0.20;0.20;;;34.00;47.60;;;;;;5093991;28;20058;-81
2022/07/14 08:10:49;;;;;;;0.43;0.43;;;34.20;47.80;;;;;;5094049;28;20028;-77
2022/07/14 08:13:14;;;;;;;0.68;0.40;;;34.60;47.80;;;;;;5093577;28;20480;-76
2022/07/14 08:15:40;;;;;;;0.55;0.55;;;34.00;48.00;;;;;;5075502;28;20480;-76
2022/07/14 08:18:07;;;;;;;1.55;0.30;;;33.40;49.50;;;;;;5093767;28;20032;-75
2022/07/14 08:20:34;;;;;;;0.43;0.43;;;33.50;49.30;;;;;;5093578;28;20020;-76
2022/07/14 08:23:00;;;;;;;0.28;0.28;;;33.90;48.50;;;;;;5093661;28;20028;-76
2022/07/14 08:25:26;;;;;;;0.08;0.08;;;34.30;48.00;;;;;;5093794;28;20070;-76
2022/07/14 08:27:52;;;;;;;0.50;0.30;;;34.40;48.30;;;;;;5093453;28;20016;-78
2022/07/14 08:30:18;;;;;;;0.20;0.20;;;34.20;48.90;;;;;;5093413;28;20031;-75
2022/07/14 08:32:49;;;;;;;1.25;0.80;;;34.10;48.70;;;;;;5076046;28;20025;-75
2022/07/14 08:35:17;;;;;;;0.57;0.28;;;33.80;49.50;;;;;;5093334;28;20365;-76
2022/07/14 08:37:44;;;;;;;0.77;0.60;;;33.80;50.70;;;;;;5093401;28;20068;-75
2022/07/14 08:40:15;;;;;;;1.30;1.00;;;33.30;50.40;;;;;;5093617;28;20262;-74
2022/07/14 08:42:46;;;;;;;0.30;0.30;;;32.80;51.70;;;;;;5093429;28;20148;-75
2022/07/14 08:45:14;;;;;;;6.32;0.40;;;32.40;51.30;;;;;;5093561;28;20024;-75
2022/07/14 08:47:40;;;;;;;0.57;0.40;;;31.90;51.80;;;;;;5097339;28;20079;-79
2022/07/14 08:50:08;;;;;;;0.90;0.38;;;31.80;53.00;;;;;;5097478;28;20024;-77
2022/07/14 08:52:36;;;;;;;0.28;0.28;;;31.50;54.10;;;;;;5096701;28;20051;-75
2022/07/14 08:55:06;;;;;;;0.10;0.10;;;32.00;53.30;;;;;;5094559;28;20057;-79
2022/07/14 08:57:31;;;;;;;0.30;0.20;;;32.20;52.90;;;;;;5093034;28;20031;-76
2022/07/14 09:00:00;;;;;;;0.45;0.45;;;32.40;52.00;;;;;;5096858;28;20012;-77
2022/07/14 09:02:25;;;;;;;0.17;0.17;;;32.60;51.40;;;;;;5094795;28;20024;-77
2022/07/14 09:04:51;;;;;;;1.08;0.30;;;32.50;51.60;;;;;;5092980;28;20073;-75
2022/07/14 09:07:37;;;;;;;7.22;0.43;;;32.10;54.00;;;;;;5092943;28;20033;-75
2022/07/14 09:10:19;;;;;;;0.10;0.10;;;31.80;52.90;;;;;;5092970;28;20020;-78
2022/07/14 09:12:45;;;;;;;0.20;0.20;;;31.60;53.60;;;;;;5093334;28;20124;-76
2022/07/14 09:17:58;;;;;;;0.10;0.10;;;32.00;52.90;;;;;;5093156;28;20127;-79
2022/07/14 09:20:27;;;;;;;0.50;0.20;;;32.50;50.50;;;;;;5093161;28;20024;-78
2022/07/14 09:22:58;;;;;;;0.75;0.65;;;32.60;49.80;;;;;;5092923;28;20052;-75
2022/07/14 09:25:25;;;;;;;0.15;0.15;;;32.20;50.00;;;;;;5074471;28;20031;-77
2022/07/14 09:27:52;;;;;;;0.52;0.52;;;32.40;52.20;;;;;;5092776;28;20064;-75
2022/07/14 09:30:18;;;;;;;0.98;0.40;;;32.20;50.50;;;;;;5092856;28;20020;-75
2022/07/14 09:32:48;;;;;;;0.20;0.20;;;31.90;51.80;;;;;;5092842;28;20465;-78
2022/07/14 09:35:17;;;;;;;0.30;0.30;;;32.20;53.00;;;;;;5074823;28;20024;-75
2022/07/14 09:37:44;;;;;;;0.30;0.30;;;31.90;49.50;;;;;;5092825;28;20024;-77
2022/07/14 09:40:15;;;;;;;0.20;0.20;;;31.70;50.40;;;;;;5092750;28;20023;-78
2022/07/14 09:42:57;;;;;;;0.20;0.20;;;31.60;49.20;;;;;;5092934;28;20031;-75
2022/07/14 09:45:29;;;;;;;0.20;0.20;;;31.80;50.60;;;;;;5092791;28;20027;-77
2022/07/14 09:48:00;;;;;;;0.20;0.20;;;32.10;49.60;;;;;;5092613;28;20067;-75
2022/07/14 09:50:35;;;;;;;0.50;0.50;;;32.10;46.90;;;;;;5092663;28;20031;-77
2022/07/14 09:53:16;;;;;;;0.30;0.30;;;31.70;47.90;;;;;;5092571;28;20048;-76
2022/07/14 09:55:59;;;;;;;0.63;0.60;;;31.60;49.00;;;;;;5092615;28;20545;-77
2022/07/14 09:58:28;;;;;;;0.13;0.13;;;31.50;47.90;;;;;;5092478;28;20043;-77
2022/07/14 10:01:10;;;;;;;0.30;0.30;;;31.50;46.70;;;;;;5092459;28;20021;-78
2022/07/14 10:03:39;;;;;;;2.88;0.32;;;31.60;47.00;;;;;;5092589;28;20031;-78
2022/07/14 10:06:05;;;;;;;0.17;0.17;;;31.40;47.10;;;;;;5092733;28;20028;-78
2022/07/14 10:08:34;;;;;;;0.32;0.32;;;31.90;47.10;;;;;;5095602;28;20027;-79
2022/07/14 10:11:03;;;;;;;0.82;0.32;;;32.40;46.90;;;;;;5096216;28;20472;-76
2022/07/14 10:13:30;;;;;;;0.40;0.40;;;32.10;44.50;;;;;;5096171;28;20097;-76
2022/07/14 10:15:57;;;;;;;0.20;0.20;;;32.00;45.50;;;;;;5096189;28;20360;-76
2022/07/14 10:18:26;;;;;;;6.97;1.55;;;32.00;46.50;;;;;;5095811;28;20154;-76
2022/07/14 10:20:54;;;;;;;0.10;0.10;;;31.90;47.30;;;;;;5077535;28;20153;-76
2022/07/14 10:23:21;;;;;;;0.45;0.30;;;31.90;45.80;;;;;;5095716;28;20051;-76
2022/07/14 10:25:50;;;;;;;0.20;0.20;;;31.80;44.50;;;;;;5095760;28;20128;-76
2022/07/14 10:28:17;;;;;;;0.30;0.25;;;32.10;45.00;;;;;;5095855;28;20020;-75
2022/07/14 10:31:16;;;;;;;0.10;0.10;;;32.30;43.80;;;;;;5095793;28;20024;-76
2022/07/14 10:34:03;;;;;;;0.25;0.25;;;32.60;42.40;;;;;;5095788;28;20024;-77
2022/07/14 10:37:03;;;;;;;0.15;0.15;;;32.60;41.20;;;;;;5077410;28;20055;-77
2022/07/14 10:39:39;;;;;;;0.10;0.10;;;32.60;42.40;;;;;;5095494;28;20024;-75
2022/07/14 10:42:39;;;;;;;0.17;0.17;;;32.50;42.70;;;;;;5095384;28;20534;-75
2022/07/14 10:45:07;;;;;;;0.10;0.10;;;32.20;42.50;;;;;;5095508;28;20043;-75
2022/07/14 10:47:47;;;;;;;0.00;0.00;;;32.30;41.90;;;;;;5095495;28;20073;-76
2022/07/14 10:50:18;;;;;;;0.20;0.20;;;32.30;41.50;;;;;;5095459;28;20145;-76
2022/07/14 10:53:00;;;;;;;0.68;0.68;;;32.10;42.40;;;;;;5095039;28;20043;-76
2022/07/14 10:55:29;;;;;;;0.20;0.20;;;32.40;43.70;;;;;;5077116;28;20030;-76
2022/07/14 10:58:01;;;;;;;0.10;0.10;;;32.70;42.70;;;;;;5095011;28;20449;-76
2022/07/14 11:00:42;;;;;;;0.52;0.45;;;33.00;43.30;;;;;;5095069;28;20419;-76
2022/07/14 11:03:20;;;;;;;2.63;0.75;;;32.70;43.10;;;;;;5095127;28;20022;-76
2022/07/14 11:06:06;;;;;;;1.83;0.17;;;32.80;43.10;;;;;;5095161;28;20027;-76
2022/07/14 11:08:33;;;;;;;0.20;0.20;;;33.10;43.10;;;;;;5095144;28;20043;-78
2022/07/14 11:11:00;;;;;;;0.13;0.13;;;33.00;42.70;;;;;;5094984;28;20020;-76
2022/07/14 11:13:27;;;;;;;0.28;0.28;;;33.30;45.20;;;;;;5094965;28;20028;-77
2022/07/14 11:16:02;;;;;;;0.20;0.20;;;33.90;43.00;;;;;;5076567;28;20427;-79
2022/07/14 11:18:35;;;;;;;0.10;0.10;;;33.90;41.60;;;;;;5094450;28;20433;-78
2022/07/14 11:21:16;;;;;;;0.30;0.30;;;33.40;42.50;;;;;;5094730;28;20047;-77
2022/07/14 11:23:51;;;;;;;0.10;0.10;;;33.80;42.70;;;;;;5094746;28;20051;-78
2022/07/14 11:26:32;;;;;;;0.22;0.10;;;34.10;42.60;;;;;;5105463;28;20019;-77
2022/07/14 11:28:59;;;;;;;0.85;0.60;;;34.10;42.20;;;;;;5099858;28;20076;-77
2022/07/14 11:31:25;;;;;;;0.10;0.10;;;34.10;43.20;;;;;;5098849;28;20017;-76
2022/07/14 11:36:59;;;;;;;0.22;0.20;;;34.50;41.60;;;;;;5094703;28;20392;-77
2022/07/14 11:39:34;;;;;;;0.03;0.03;;;35.00;41.80;;;;;;5094389;28;20028;-78
2022/07/14 11:42:11;;;;;;;0.10;0.10;;;35.10;40.00;;;;;;5094657;28;20027;-76
2022/07/14 11:44:40;;;;;;;0.40;0.20;;;35.30;41.50;;;;;;5094458;28;20492;-77
2022/07/14 11:47:16;;;;;;;0.32;0.32;;;35.50;38.90;;;;;;5076077;28;20393;-79
2022/07/14 11:49:50;;;;;;;0.52;0.28;;;35.80;39.70;;;;;;5094464;28;20032;-76
2022/07/14 11:52:16;;;;;;;0.25;0.20;;;36.00;40.10;;;;;;5094233;28;20067;-79
2022/07/14 11:54:43;;;;;;;0.30;0.30;;;36.30;39.40;;;;;;5094007;28;20464;-78
2022/07/14 11:57:10;;;;;;;0.15;0.15;;;35.80;39.40;;;;;;5094047;28;20035;-79
2022/07/14 11:59:41;;;;;;;0.98;0.05;;;35.90;40.10;;;;;;5094083;28;20103;-79
2022/07/14 12:02:10;;;;;;;0.15;0.15;;;36.60;40.00;;;;;;5094030;28;20020;-79
2022/07/14 12:04:57;;;;;;;0.30;0.20;;;36.50;39.50;;;;;;5093958;28;20031;-76
2022/07/14 12:07:25;;;;;;;0.25;0.20;;;35.90;39.80;;;;;;5093957;28;20016;-79
2022/07/14 12:09:52;;;;;;;0.25;0.25;;;35.90;39.80;;;;;;5093906;28;20024;-78
2022/07/14 12:12:19;;;;;;;0.10;0.10;;;35.90;40.10;;;;;;5093751;28;20111;-79
2022/07/14 12:14:46;;;;;;;0.30;0.20;;;36.10;39.90;;;;;;5093769;28;20023;-77
2022/07/14 12:17:12;;;;;;;0.20;0.20;;;35.90;40.20;;;;;;5093811;28;20028;-79
2022/07/14 12:19:37;;;;;;;0.20;0.20;;;36.30;39.50;;;;;;5093889;28;20115;-79
2022/07/14 12:22:05;;;;;;;0.40;0.20;;;36.50;40.80;;;;;;5093648;28;20086;-79
2022/07/14 12:24:32;;;;;;;0.17;0.17;;;36.50;39.30;;;;;;5075589;28;20325;-79
2022/07/14 12:26:59;;;;;;;0.35;0.35;;;36.90;40.60;;;;;;5093535;28;20100;-80
2022/07/14 12:29:24;;;;;;;0.10;0.10;;;37.60;39.20;;;;;;5093050;28;20056;-79
2022/07/14 12:31:50;;;;;;;0.10;0.10;;;37.50;37.30;;;;;;5093168;28;20060;-80
2022/07/14 12:34:16;;;;;;;0.30;0.30;;;37.60;37.90;;;;;;5093514;28;20111;-80
2022/07/14 12:36:43;;;;;;;0.47;0.25;;;37.50;37.10;;;;;;5093453;28;20048;-76
2022/07/14 12:39:09;;;;;;;0.68;0.68;;;37.90;37.50;;;;;;5093333;28;20024;-77
2022/07/14 12:41:38;;;;;;;0.15;0.15;;;37.20;37.20;;;;;;5093488;28;20027;-76
2022/07/14 12:44:05;;;;;;;0.20;0.20;;;36.20;36.00;;;;;;5093334;28;20028;-77
2022/07/14 12:46:31;;;;;;;0.10;0.10;;;35.70;37.10;;;;;;5093253;28;20516;-76
2022/07/14 12:49:03;;;;;;;0.20;0.20;;;35.70;38.60;;;;;;5093078;28;20016;-76
2022/07/14 12:51:44;;;;;;;0.10;0.10;;;35.60;37.20;;;;;;5093182;28;20112;-77
2022/07/14 12:54:16;;;;;;;1.38;0.15;;;36.00;37.70;;;;;;5093420;28;20071;-77
2022/07/14 12:56:41;;;;;;;0.00;0.00;;;36.80;38.90;;;;;;5093132;28;20487;-79
2022/07/14 12:59:10;;;;;;;0.60;0.50;;;36.70;38.00;;;;;;5093122;28;20107;-79
2022/07/14 13:01:56;;;;;;;0.10;0.10;;;36.50;37.70;;;;;;5093489;28;20012;-76
2022/07/14 13:05:01;;;;;;;0.13;0.13;;;36.30;37.50;;;;;;5078814;28;20392;-79
2022/07/14 13:07:29;;;;;;;0.10;0.10;;;35.90;38.60;;;;;;5051945;28;20050;-79